createdAt,value
2023-02-28T00:01:33.756Z,16.87
2023-02-28T00:04:02.513Z,15.05
2023-02-28T00:06:33.924Z,16.30
2023-02-28T00:09:01.879Z,16.73
2023-02-28T00:11:30.313Z,17.07
2023-02-28T00:14:01.082Z,17.65
2023-02-28T00:16:28.898Z,17.52
2023-02-28T00:18:56.678Z,16.73
2023-02-28T00:21:26.385Z,17.45
2023-02-28T00:23:54.224Z,15.55
2023-02-28T00:26:22.152Z,16.52
2023-02-28T00:28:53.651Z,17.07
2023-02-28T00:31:21.567Z,15.58
2023-02-28T00:33:49.441Z,15.05
2023-02-28T00:36:17.179Z,14.38
2023-02-28T00:38:46.558Z,16.55
2023-02-28T00:41:14.110Z,16.45
2023-02-28T00:43:41.994Z,17.73
2023-02-28T00:46:11.647Z,18.40
2023-02-28T00:48:39.417Z,18.98
2023-02-28T00:51:07.002Z,17.30
2023-02-28T00:53:34.836Z,18.50
2023-02-28T00:56:04.604Z,18.05
2023-02-28T00:58:32.787Z,17.20
2023-02-28T01:01:00.942Z,19.02
2023-02-28T01:03:29.192Z,18.65
2023-02-28T01:05:58.114Z,19.27
2023-02-28T01:08:26.547Z,18.35
2023-02-28T01:10:54.251Z,18.87
2023-02-28T01:13:23.977Z,17.98
2023-02-28T01:15:55.888Z,19.40
2023-02-28T01:18:23.581Z,17.67
2023-02-28T01:20:52.866Z,17.87
2023-02-28T01:23:23.846Z,18.85
2023-02-28T01:25:52.422Z,18.17
2023-02-28T01:28:20.528Z,19.48
2023-02-28T01:30:51.783Z,17.85
2023-02-28T01:33:19.754Z,17.87
2023-02-28T01:35:47.332Z,18.90
2023-02-28T01:38:22.837Z,19.50
2023-02-28T01:40:47.539Z,20.55
2023-02-28T01:43:25.706Z,17.82
2023-02-28T01:45:57.865Z,18.27
2023-02-28T01:48:33.580Z,16.93
2023-02-28T01:51:06.596Z,18.57
2023-02-28T01:53:39.591Z,18.27
2023-02-28T01:56:09.749Z,16.52
2023-02-28T01:58:38.001Z,16.45
2023-02-28T02:01:05.874Z,14.65
2023-02-28T02:03:36.264Z,15.78
2023-02-28T02:06:06.320Z,15.75
2023-02-28T02:08:33.918Z,15.25
2023-02-28T02:11:03.229Z,15.08
2023-02-28T02:13:53.404Z,14.58
2023-02-28T02:16:47.447Z,16.57
2023-02-28T02:19:55.644Z,16.40
2023-02-28T02:22:46.904Z,17.42
2023-02-28T02:25:41.097Z,17.00
2023-02-28T02:28:29.259Z,16.60
2023-02-28T02:31:20.842Z,16.37
2023-02-28T02:34:09.216Z,17.35
2023-02-28T02:37:06.569Z,17.02
2023-02-28T02:39:51.281Z,17.17
2023-02-28T02:42:39.510Z,18.02
2023-02-28T02:45:24.335Z,17.23
2023-02-28T02:47:52.634Z,17.25
2023-02-28T02:50:31.425Z,17.55
2023-02-28T02:53:02.340Z,18.60
2023-02-28T02:55:34.953Z,17.65
2023-02-28T02:58:07.308Z,18.82
2023-02-28T03:00:39.557Z,18.05
2023-02-28T03:03:10.516Z,17.60
2023-02-28T03:05:50.895Z,19.42
2023-02-28T03:08:18.833Z,19.17
2023-02-28T03:10:52.740Z,18.30
2023-02-28T03:13:42.514Z,18.23
2023-02-28T03:16:35.105Z,17.62
2023-02-28T03:19:27.774Z,18.73
2023-02-28T03:22:35.531Z,19.77
2023-02-28T03:25:35.015Z,17.30
2023-02-28T03:28:29.248Z,16.37
2023-02-28T03:31:09.661Z,16.07
2023-02-28T03:34:06.851Z,16.67
2023-02-28T03:36:54.017Z,15.50
2023-02-28T03:39:27.024Z,14.70
2023-02-28T03:42:00.415Z,14.65
2023-02-28T03:44:47.530Z,15.72
2023-02-28T03:47:20.606Z,13.45
2023-02-28T03:49:53.749Z,14.50
2023-02-28T03:52:26.543Z,16.50
2023-02-28T03:55:00.702Z,14.80
2023-02-28T03:58:07.058Z,13.15
2023-02-28T04:00:42.868Z,12.88
2023-02-28T04:03:10.508Z,13.00
2023-02-28T04:05:56.580Z,13.50
2023-02-28T04:08:24.188Z,12.98
2023-02-28T04:11:21.390Z,14.05
2023-02-28T04:13:49.098Z,12.82
2023-02-28T04:16:33.366Z,13.35
2023-02-28T04:18:46.805Z,14.45
2023-02-28T04:21:14.767Z,13.32
2023-02-28T04:23:42.307Z,13.18
2023-02-28T04:26:10.018Z,13.45
2023-02-28T04:28:38.985Z,12.45
2023-02-28T04:31:06.952Z,12.05
2023-02-28T04:33:34.908Z,11.95
2023-02-28T04:36:07.706Z,9.90
2023-02-28T04:38:38.418Z,9.23
2023-02-28T04:41:06.894Z,8.65
2023-02-28T04:43:34.659Z,8.95
2023-02-28T04:46:05.317Z,8.78
2023-02-28T04:48:37.001Z,8.75
2023-02-28T04:51:09.196Z,8.83
2023-02-28T04:53:39.569Z,7.83
2023-02-28T04:56:09.473Z,7.67
2023-02-28T04:58:37.937Z,8.25
2023-02-28T05:01:25.948Z,7.78
2023-02-28T05:03:56.782Z,8.18
2023-02-28T05:06:27.690Z,9.25
2023-02-28T05:08:55.878Z,10.13
2023-02-28T05:11:33.347Z,9.75
2023-02-28T05:14:02.900Z,10.05
2023-02-28T05:16:30.992Z,9.68
2023-02-28T05:18:59.131Z,11.28
2023-02-28T05:21:36.156Z,11.75
2023-02-28T05:24:08.478Z,14.75
2023-02-28T05:26:40.161Z,13.70
2023-02-28T05:29:08.280Z,13.00
2023-02-28T05:31:36.726Z,12.98
2023-02-28T05:34:04.707Z,14.10
2023-02-28T05:36:32.426Z,12.65
2023-02-28T05:39:00.938Z,12.90
2023-02-28T05:41:29.284Z,11.50
2023-02-28T05:44:00.231Z,11.03
2023-02-28T05:46:28.324Z,11.28
2023-02-28T05:48:58.062Z,11.63
2023-02-28T05:51:25.700Z,11.08
2023-02-28T05:53:53.736Z,10.05
2023-02-28T05:56:22.582Z,11.00
2023-02-28T05:58:50.237Z,11.48
2023-02-28T06:01:35.989Z,13.13
2023-02-28T06:06:36.913Z,10.40
2023-02-28T06:09:05.898Z,11.25
2023-02-28T06:11:34.221Z,10.15
2023-02-28T06:14:03.210Z,10.23
2023-02-28T06:16:33.454Z,9.85
2023-02-28T06:19:04.348Z,8.85
2023-02-28T06:21:32.873Z,7.80
2023-02-28T06:24:00.941Z,7.03
2023-02-28T06:26:29.205Z,7.40
2023-02-28T06:28:59.665Z,8.93
2023-02-28T06:31:30.513Z,8.45
2023-02-28T06:34:00.497Z,8.33
2023-02-28T06:36:28.332Z,7.85
2023-02-28T06:38:56.588Z,9.63
2023-02-28T06:41:26.767Z,11.60
2023-02-28T06:43:54.792Z,10.20
2023-02-28T06:46:23.585Z,12.07
2023-02-28T06:48:51.690Z,12.37
2023-02-28T06:51:22.955Z,11.08
2023-02-28T06:53:51.949Z,10.68
2023-02-28T06:56:21.548Z,10.18
2023-02-28T06:58:52.164Z,10.53
2023-02-28T07:01:20.382Z,10.85
2023-02-28T07:03:50.378Z,10.45
2023-02-28T07:06:19.039Z,10.80
2023-02-28T07:08:46.725Z,10.38
2023-02-28T07:11:24.206Z,10.05
2023-02-28T07:13:56.912Z,8.45
2023-02-28T07:16:27.331Z,8.25
2023-02-28T07:18:56.310Z,8.93
2023-02-28T07:21:25.227Z,9.05
2023-02-28T07:23:54.587Z,8.75
2023-02-28T07:26:26.153Z,9.85
2023-02-28T07:28:54.945Z,9.40
2023-02-28T07:31:27.152Z,8.70
2023-02-28T07:34:01.096Z,8.73
2023-02-28T07:36:29.438Z,9.25
2023-02-28T07:38:57.276Z,8.05
2023-02-28T07:41:27.376Z,7.40
2023-02-28T07:44:52.157Z,7.33
2023-02-28T07:47:25.553Z,8.13
2023-02-28T07:49:53.504Z,8.08
2023-02-28T07:52:21.215Z,6.85
2023-02-28T07:54:56.880Z,8.08
2023-02-28T07:57:26.014Z,7.17
2023-02-28T07:59:54.151Z,7.78
2023-02-28T08:02:28.179Z,6.60
2023-02-28T08:04:56.842Z,7.97
2023-02-28T08:07:24.604Z,6.50
2023-02-28T08:09:52.271Z,6.08
2023-02-28T08:12:20.453Z,6.42
2023-02-28T08:14:48.292Z,6.53
2023-02-28T08:17:16.275Z,8.83
2023-02-28T08:19:46.756Z,5.60
2023-02-28T08:22:14.672Z,5.47
2023-02-28T08:24:44.191Z,6.05
2023-02-28T08:27:12.098Z,5.53
2023-02-28T08:29:47.763Z,6.25
2023-02-28T08:32:29.694Z,6.00
2023-02-28T08:34:51.787Z,5.08
2023-02-28T08:37:19.712Z,5.28
2023-02-28T08:39:47.621Z,5.90
2023-02-28T08:42:15.329Z,5.50
2023-02-28T08:44:43.150Z,5.78
2023-02-28T08:47:11.666Z,6.28
2023-02-28T08:49:39.682Z,6.10
2023-02-28T08:52:07.908Z,6.45
2023-02-28T08:54:37.062Z,6.10
2023-02-28T08:57:04.895Z,5.65
2023-02-28T08:59:33.022Z,4.83
2023-02-28T09:02:00.974Z,5.40
2023-02-28T09:04:30.466Z,5.50
2023-02-28T09:06:59.435Z,5.60
2023-02-28T09:09:27.381Z,4.65
2023-02-28T09:11:57.306Z,5.28
2023-02-28T09:14:29.420Z,4.50
2023-02-28T09:17:00.715Z,4.60
2023-02-28T09:19:28.347Z,4.50
2023-02-28T09:21:56.339Z,3.40
2023-02-28T09:24:24.263Z,3.87
2023-02-28T09:27:03.887Z,3.25
2023-02-28T09:29:21.609Z,4.08
2023-02-28T09:31:50.214Z,3.40
2023-02-28T09:34:18.073Z,3.90
2023-02-28T09:36:46.912Z,6.70
2023-02-28T09:39:17.819Z,3.10
2023-02-28T09:41:50.533Z,11.22
2023-02-28T09:44:35.512Z,2.95
2023-02-28T09:47:20.757Z,3.12
2023-02-28T09:49:49.994Z,3.00
2023-02-28T09:52:26.266Z,3.05
2023-02-28T09:54:54.098Z,3.20
2023-02-28T09:57:41.129Z,3.22
2023-02-28T10:00:23.241Z,2.83
2023-02-28T10:03:11.727Z,3.55
2023-02-28T10:05:57.255Z,2.50
2023-02-28T10:08:36.655Z,2.47
2023-02-28T10:11:09.627Z,2.20
2023-02-28T10:13:51.064Z,2.40
2023-02-28T10:16:31.092Z,2.22
2023-02-28T10:19:26.879Z,2.60
2023-02-28T10:25:26.822Z,3.25
2023-02-28T10:28:01.123Z,3.12
2023-02-28T10:32:58.085Z,2.45
2023-02-28T10:35:27.489Z,3.30
2023-02-28T10:37:58.840Z,3.08
2023-02-28T10:40:32.046Z,2.80
2023-02-28T10:43:17.411Z,2.22
2023-02-28T10:45:59.774Z,2.70
2023-02-28T10:48:38.120Z,2.22
2023-02-28T10:51:16.326Z,2.70
2023-02-28T10:54:01.534Z,2.72
2023-02-28T10:56:24.898Z,2.75
2023-02-28T10:58:57.746Z,2.72
2023-02-28T11:01:42.154Z,2.70
2023-02-28T11:04:29.975Z,3.20
2023-02-28T11:07:04.076Z,3.10
2023-02-28T11:09:37.208Z,2.58
2023-02-28T11:12:09.534Z,2.60
2023-02-28T11:14:45.612Z,2.92
2023-02-28T11:17:24.900Z,2.42
2023-02-28T11:19:59.984Z,2.52
2023-02-28T11:22:32.232Z,2.77
2023-02-28T11:25:18.112Z,2.40
2023-02-28T11:27:53.198Z,4.42
2023-02-28T11:30:41.388Z,3.30
2023-02-28T11:33:51.423Z,2.70
2023-02-28T11:36:29.172Z,2.62
2023-02-28T11:39:08.524Z,3.20
2023-02-28T11:41:54.307Z,2.45
2023-02-28T11:47:45.827Z,2.60
2023-02-28T11:50:52.627Z,2.33
2023-02-28T11:53:27.343Z,2.30
2023-02-28T11:56:11.791Z,2.40
2023-02-28T11:58:57.513Z,2.47
2023-02-28T12:02:05.545Z,3.50
2023-02-28T12:05:00.161Z,3.08
2023-02-28T12:07:39.134Z,2.90
2023-02-28T12:10:26.623Z,5.85
2023-02-28T12:13:30.528Z,2.62
2023-02-28T12:16:29.991Z,2.37
2023-02-28T12:19:12.696Z,2.67
2023-02-28T12:22:23.051Z,7.37
2023-02-28T12:24:56.376Z,3.40
2023-02-28T12:27:28.215Z,2.60
2023-02-28T12:30:22.991Z,3.05
2023-02-28T12:33:05.397Z,5.15
2023-02-28T12:35:41.819Z,4.95
2023-02-28T12:38:23.611Z,3.40
2023-02-28T12:41:07.538Z,3.17
2023-02-28T12:43:45.785Z,4.28
2023-02-28T12:46:42.371Z,4.42
2023-02-28T12:49:15.638Z,4.95
2023-02-28T12:51:47.853Z,4.95
2023-02-28T12:54:21.144Z,2.90
2023-02-28T12:57:20.773Z,2.02
2023-02-28T12:59:57.036Z,2.47
2023-02-28T13:03:02.267Z,6.42
2023-02-28T13:06:07.024Z,3.45
2023-02-28T13:09:01.066Z,3.50
2023-02-28T13:11:43.253Z,3.02
2023-02-28T13:14:35.194Z,3.70
2023-02-28T13:17:13.627Z,3.37
2023-02-28T13:19:55.486Z,4.25
2023-02-28T13:22:43.659Z,2.37
2023-02-28T13:25:44.983Z,2.05
2023-02-28T13:28:15.183Z,6.35
2023-02-28T13:30:59.541Z,3.90
2023-02-28T13:33:40.179Z,2.20
2023-02-28T13:36:23.396Z,2.52
2023-02-28T13:39:05.908Z,2.67
2023-02-28T13:41:44.892Z,3.42
2023-02-28T13:44:27.444Z,2.87
2023-02-28T13:47:02.172Z,5.90
2023-02-28T13:49:37.553Z,2.83
2023-02-28T13:52:18.233Z,2.87
2023-02-28T13:55:21.344Z,2.30
2023-02-28T13:58:06.704Z,4.00
2023-02-28T14:01:09.839Z,3.87
2023-02-28T14:04:02.146Z,4.72
2023-02-28T14:06:38.066Z,5.83
2023-02-28T14:09:26.447Z,4.17
2023-02-28T14:11:56.232Z,4.85
2023-02-28T14:14:41.319Z,4.60
2023-02-28T14:17:16.136Z,4.53
2023-02-28T14:19:50.016Z,3.90
2023-02-28T14:22:49.155Z,4.70
2023-02-28T14:25:40.771Z,5.60
2023-02-28T14:28:28.759Z,4.60
2023-02-28T14:31:12.087Z,5.30
2023-02-28T14:34:19.529Z,5.30
2023-02-28T14:36:49.459Z,3.20
2023-02-28T14:39:23.742Z,5.55
2023-02-28T14:41:52.472Z,5.80
2023-02-28T14:44:28.643Z,5.75
2023-02-28T14:47:00.141Z,5.53
2023-02-28T14:49:40.073Z,6.08
2023-02-28T14:52:22.464Z,6.97
2023-02-28T14:54:57.481Z,7.15
2023-02-28T14:57:32.507Z,7.10
2023-02-28T15:00:30.266Z,8.40
2023-02-28T15:03:01.305Z,7.85
2023-02-28T15:05:35.434Z,7.53
2023-02-28T15:08:17.105Z,6.50
2023-02-28T15:10:55.301Z,5.53
2023-02-28T15:13:26.598Z,5.47
2023-02-28T15:16:03.501Z,5.25
2023-02-28T15:18:45.593Z,6.42
2023-02-28T15:21:19.169Z,8.33
2023-02-28T15:24:00.638Z,10.75
2023-02-28T15:26:36.862Z,8.03
2023-02-28T15:29:12.874Z,6.83
2023-02-28T15:31:57.349Z,5.70
2023-02-28T15:34:28.516Z,26.10
2023-02-28T15:36:54.500Z,19.27
2023-02-28T15:39:27.990Z,7.70
2023-02-28T15:42:14.117Z,5.80
2023-02-28T15:44:42.062Z,5.40
2023-02-28T15:47:25.630Z,4.47
2023-02-28T15:49:59.254Z,4.60
2023-02-28T15:52:42.632Z,4.92
2023-02-28T15:55:24.312Z,4.78
2023-02-28T15:57:58.434Z,4.45
2023-02-28T16:00:29.291Z,5.47
2023-02-28T16:02:57.403Z,5.90
2023-02-28T16:05:32.278Z,5.33
2023-02-28T16:08:14.177Z,5.87
2023-02-28T16:10:42.081Z,6.65
2023-02-28T16:13:14.354Z,6.10
2023-02-28T16:15:45.020Z,6.60
2023-02-28T16:18:13.676Z,7.15
2023-02-28T16:20:42.297Z,6.60
2023-02-28T16:23:10.371Z,6.58
2023-02-28T16:25:41.621Z,8.10
2023-02-28T16:28:23.989Z,4.95
2023-02-28T16:30:54.109Z,5.62
2023-02-28T16:33:22.202Z,6.35
2023-02-28T16:35:54.676Z,7.35
2023-02-28T16:38:24.250Z,7.05
2023-02-28T16:40:54.884Z,6.83
2023-02-28T16:43:26.878Z,7.80
2023-02-28T16:46:01.390Z,9.38
2023-02-28T16:48:31.385Z,9.13
2023-02-28T16:50:59.630Z,8.73
2023-02-28T16:53:27.512Z,9.93
2023-02-28T16:55:55.365Z,11.20
2023-02-28T16:58:25.491Z,14.05
2023-02-28T17:00:54.010Z,9.35
2023-02-28T17:03:33.840Z,9.68
2023-02-28T17:05:58.827Z,8.68
2023-02-28T17:08:29.780Z,7.85
2023-02-28T17:10:58.699Z,7.78
2023-02-28T17:13:27.390Z,8.38
2023-02-28T17:15:56.504Z,7.10
2023-02-28T17:18:24.700Z,7.12
2023-02-28T17:20:56.604Z,7.17
2023-02-28T17:23:26.586Z,7.10
2023-02-28T17:25:57.896Z,6.72
2023-02-28T17:28:29.086Z,6.87
2023-02-28T17:30:58.582Z,7.85
2023-02-28T17:33:26.609Z,6.97
2023-02-28T17:35:54.433Z,7.10
2023-02-28T17:38:23.471Z,7.83
2023-02-28T17:40:53.390Z,8.50
2023-02-28T17:43:21.251Z,8.83
2023-02-28T17:45:48.969Z,8.65
2023-02-28T17:48:17.359Z,6.50
2023-02-28T17:50:45.335Z,6.05
2023-02-28T17:53:13.377Z,5.80
2023-02-28T17:55:41.111Z,5.97
2023-02-28T17:58:13.059Z,6.22
2023-02-28T18:00:41.557Z,7.17
2023-02-28T18:03:10.094Z,8.80
2023-02-28T18:05:38.219Z,9.68
2023-02-28T18:08:06.267Z,9.13
2023-02-28T18:10:33.915Z,9.83
2023-02-28T18:13:01.632Z,9.65
2023-02-28T18:15:29.963Z,8.58
2023-02-28T18:17:58.053Z,8.38
2023-02-28T18:20:26.467Z,9.08
2023-02-28T18:22:54.518Z,12.90
2023-02-28T18:25:22.985Z,25.90
2023-02-28T18:27:53.702Z,59.75
2023-02-28T18:30:22.158Z,63.48
2023-02-28T18:32:50.248Z,67.15
2023-02-28T18:35:20.873Z,47.10
2023-02-28T18:37:49.148Z,36.33
2023-02-28T18:40:17.378Z,28.62
2023-02-28T18:42:48.569Z,24.87
2023-02-28T18:45:19.509Z,55.50
2023-02-28T18:47:47.928Z,61.33
2023-02-28T18:50:16.293Z,54.08
2023-02-28T18:52:44.278Z,50.83
2023-02-28T18:55:13.974Z,56.05
2023-02-28T18:57:42.097Z,51.63
2023-02-28T19:00:12.625Z,56.33
2023-02-28T19:02:43.088Z,53.30
2023-02-28T19:05:15.965Z,54.93
2023-02-28T19:07:43.863Z,64.60
2023-02-28T19:10:13.190Z,53.02
2023-02-28T19:12:45.900Z,48.68
2023-02-28T19:15:13.880Z,49.20
2023-02-28T19:17:47.436Z,61.63
2023-02-28T19:20:26.267Z,45.85
2023-02-28T19:23:01.748Z,33.02
2023-02-28T19:25:29.644Z,26.12
2023-02-28T19:28:01.132Z,38.35
2023-02-28T19:30:34.426Z,37.63
2023-02-28T19:33:02.575Z,38.53
2023-02-28T19:35:30.646Z,27.45
2023-02-28T19:37:59.822Z,20.00
2023-02-28T19:40:33.339Z,13.20
2023-02-28T19:43:04.268Z,12.43
2023-02-28T19:45:37.485Z,37.88
2023-02-28T19:48:18.004Z,22.35
2023-02-28T19:50:46.323Z,166.45
2023-02-28T19:53:16.266Z,249.45
2023-02-28T19:55:47.288Z,189.82
2023-02-28T19:58:17.436Z,109.52
2023-02-28T20:00:47.032Z,75.80
2023-02-28T20:03:17.634Z,58.02
2023-02-28T20:05:46.767Z,54.18
2023-02-28T20:08:14.669Z,45.85
2023-02-28T20:10:42.572Z,37.38
2023-02-28T20:13:10.711Z,22.35
2023-02-28T20:15:38.821Z,19.20
2023-02-28T20:18:10.260Z,19.35
2023-02-28T20:20:40.370Z,16.97
2023-02-28T20:23:08.754Z,14.90
2023-02-28T20:25:40.501Z,15.90
2023-02-28T20:28:08.593Z,16.05
2023-02-28T20:30:42.197Z,13.88
2023-02-28T20:33:10.319Z,14.58
2023-02-28T20:35:41.532Z,17.90
2023-02-28T20:38:11.418Z,19.12
2023-02-28T20:40:39.259Z,19.27
2023-02-28T20:43:08.979Z,20.12
2023-02-28T20:45:37.040Z,17.87
2023-02-28T20:48:04.866Z,18.73
2023-02-28T20:50:33.516Z,18.52
2023-02-28T20:53:01.497Z,19.52
2023-02-28T20:55:29.919Z,21.20
2023-02-28T20:57:58.077Z,27.67
2023-02-28T21:00:26.244Z,34.27
2023-02-28T21:02:54.114Z,27.20
2023-02-28T21:05:22.326Z,25.77
2023-02-28T21:07:50.746Z,26.57
2023-02-28T21:10:18.889Z,28.73
2023-02-28T21:12:50.358Z,30.27
2023-02-28T21:15:18.203Z,30.02
2023-02-28T21:17:47.685Z,28.87
2023-02-28T21:20:17.913Z,24.35
2023-02-28T21:22:45.493Z,24.85
2023-02-28T21:25:14.309Z,24.32
2023-02-28T21:27:42.843Z,24.47
2023-02-28T21:30:11.530Z,21.75
2023-02-28T21:32:39.810Z,22.50
2023-02-28T21:35:08.478Z,23.45
2023-02-28T21:37:39.252Z,21.85
2023-02-28T21:40:08.520Z,21.37
2023-02-28T21:42:36.793Z,23.50
2023-02-28T21:45:07.663Z,24.02
2023-02-28T21:47:35.740Z,32.08
2023-02-28T21:50:03.705Z,33.28
2023-02-28T21:52:31.497Z,29.55
2023-02-28T21:54:59.523Z,24.95
2023-02-28T21:57:27.539Z,23.10
2023-02-28T21:59:56.513Z,23.57
2023-02-28T22:02:24.477Z,32.73
2023-02-28T22:04:52.982Z,34.95
2023-02-28T22:07:20.786Z,25.35
2023-02-28T22:09:48.888Z,21.82
2023-02-28T22:12:17.128Z,34.05
2023-02-28T22:14:45.791Z,26.75
2023-02-28T22:17:13.810Z,20.50
2023-02-28T22:19:41.869Z,21.82
2023-02-28T22:22:12.593Z,20.27
2023-02-28T22:24:40.475Z,20.23
2023-02-28T22:27:09.098Z,21.15
2023-02-28T22:29:37.845Z,22.02
2023-02-28T22:32:09.608Z,23.67
2023-02-28T22:34:37.978Z,29.02
2023-02-28T22:37:06.697Z,28.12
2023-02-28T22:39:34.721Z,30.35
2023-02-28T22:42:02.852Z,31.05
2023-02-28T22:44:33.522Z,32.53
2023-02-28T22:47:01.697Z,33.38
2023-02-28T22:49:29.635Z,35.03
2023-02-28T22:51:57.518Z,34.40
2023-02-28T22:54:27.133Z,33.15
2023-02-28T22:56:55.113Z,33.38
2023-02-28T22:59:22.871Z,33.50
2023-02-28T23:01:50.718Z,34.10
2023-02-28T23:04:19.370Z,32.33
2023-02-28T23:06:47.621Z,32.10
2023-02-28T23:09:20.975Z,33.18
2023-02-28T23:11:51.260Z,36.30
2023-02-28T23:14:21.115Z,36.28
2023-02-28T23:16:55.753Z,37.35
2023-02-28T23:19:31.775Z,39.50
2023-02-28T23:22:01.569Z,36.23
2023-02-28T23:24:33.626Z,36.15
2023-02-28T23:27:05.247Z,42.78
2023-02-28T23:29:34.651Z,59.27
2023-02-28T23:32:03.428Z,52.10
2023-02-28T23:34:31.645Z,51.95
2023-02-28T23:37:01.258Z,50.35
2023-02-28T23:39:31.185Z,53.75
2023-02-28T23:41:59.668Z,49.10
2023-02-28T23:44:27.562Z,45.40
2023-02-28T23:46:55.571Z,37.98
2023-02-28T23:49:23.263Z,35.88
2023-02-28T23:51:53.844Z,32.90
2023-02-28T23:54:21.676Z,35.05
2023-02-28T23:56:50.084Z,32.83
2023-02-28T23:59:17.924Z,34.27
